createdAt,value
2022-09-15T00:00:51.253Z,99383.47
2022-09-15T00:03:18.165Z,99381.72
2022-09-15T00:05:45.199Z,99376.37
2022-09-15T00:08:13.110Z,99371.06
2022-09-15T00:11:00.651Z,99350.63
2022-09-15T00:13:27.214Z,99347.97
2022-09-15T00:15:53.916Z,99322.22
2022-09-15T00:18:20.580Z,99275.34
2022-09-15T00:20:47.150Z,99285.09
2022-09-15T00:23:14.578Z,99277.13
2022-09-15T00:25:51.420Z,99305.44
2022-09-15T00:28:20.113Z,99297.47
2022-09-15T00:30:51.328Z,99324.03
2022-09-15T00:33:18.248Z,99356.81
2022-09-15T00:35:45.724Z,99347.97
2022-09-15T00:38:13.000Z,99364.78
2022-09-15T00:40:46.682Z,99370.09
2022-09-15T00:43:13.981Z,99377.13
2022-09-15T00:45:40.627Z,99392.22
2022-09-15T00:48:09.411Z,99402.00
2022-09-15T00:50:36.543Z,99417.97
2022-09-15T00:53:04.587Z,99427.75
2022-09-15T00:55:37.997Z,99420.63
2022-09-15T00:58:07.017Z,99417.97
2022-09-15T01:00:34.006Z,99416.16
2022-09-15T01:03:00.759Z,99411.81
2022-09-15T01:05:38.427Z,99421.47
2022-09-15T01:08:11.167Z,99413.50
2022-09-15T01:10:40.210Z,99405.53
2022-09-15T01:13:11.720Z,99413.50
2022-09-15T01:16:16.264Z,99429.47
2022-09-15T01:19:00.708Z,99424.97
2022-09-15T01:21:49.688Z,99408.19
2022-09-15T01:25:04.465Z,99408.19
2022-09-15T01:27:45.977Z,99417.00
2022-09-15T01:30:15.571Z,99409.88
2022-09-15T01:33:06.717Z,99417.00
2022-09-15T01:35:54.175Z,99408.19
2022-09-15T01:38:44.612Z,99405.41
2022-09-15T01:41:19.214Z,99402.84
2022-09-15T01:43:53.470Z,99405.41
2022-09-15T01:46:20.800Z,99404.56
2022-09-15T01:48:47.598Z,99409.88
2022-09-15T01:51:14.296Z,99412.53
2022-09-15T01:53:40.963Z,99415.19
2022-09-15T01:56:09.503Z,99417.84
2022-09-15T01:58:37.159Z,99415.19
2022-09-15T02:01:20.145Z,99414.34
2022-09-15T02:03:55.620Z,99411.69
2022-09-15T02:06:52.066Z,99416.88
2022-09-15T02:09:22.855Z,99423.16
2022-09-15T02:12:08.847Z,99417.84
2022-09-15T02:14:39.096Z,99413.38
2022-09-15T02:17:05.665Z,99422.19
2022-09-15T02:19:33.332Z,99420.50
2022-09-15T02:22:10.607Z,99417.84
2022-09-15T02:24:40.958Z,99425.81
2022-09-15T02:27:09.333Z,99425.81
2022-09-15T02:29:36.199Z,99413.38
2022-09-15T02:32:07.097Z,99412.53
2022-09-15T02:34:36.274Z,99418.69
2022-09-15T02:37:04.720Z,99421.25
2022-09-15T02:39:33.194Z,99427.53
2022-09-15T02:42:02.293Z,99432.84
2022-09-15T02:44:30.987Z,99438.16
2022-09-15T02:46:58.710Z,99437.31
2022-09-15T02:49:25.276Z,99429.22
2022-09-15T02:51:51.881Z,99427.66
2022-09-15T02:54:18.971Z,99430.19
2022-09-15T02:56:45.598Z,99425.81
2022-09-15T02:59:12.133Z,99432.84
2022-09-15T03:01:38.939Z,99430.31
2022-09-15T03:04:05.647Z,99421.34
2022-09-15T03:06:34.838Z,99423.06
2022-09-15T03:09:04.564Z,99422.19
2022-09-15T03:11:31.390Z,99427.53
2022-09-15T03:13:59.699Z,99423.06
2022-09-15T03:16:26.733Z,99424.88
2022-09-15T03:18:56.730Z,99421.34
2022-09-15T03:21:23.409Z,99422.19
2022-09-15T03:23:50.018Z,99420.41
2022-09-15T03:26:16.679Z,99422.19
2022-09-15T03:28:43.404Z,99423.16
2022-09-15T03:31:10.054Z,99433.69
2022-09-15T03:33:36.896Z,99425.81
2022-09-15T03:36:03.934Z,99427.53
2022-09-15T03:38:30.607Z,99416.88
2022-09-15T03:41:01.675Z,99420.41
2022-09-15T03:43:29.633Z,99424.88
2022-09-15T03:45:56.818Z,99427.53
2022-09-15T03:48:24.091Z,99427.53
2022-09-15T03:50:51.076Z,99416.03
2022-09-15T03:53:17.838Z,99418.56
2022-09-15T03:55:45.473Z,99419.53
2022-09-15T03:58:12.837Z,99422.19
2022-09-15T04:00:40.778Z,99416.88
2022-09-15T04:03:07.362Z,99428.38
2022-09-15T04:05:34.857Z,99433.69
2022-09-15T04:08:01.598Z,99434.53
2022-09-15T04:10:28.276Z,99425.72
2022-09-15T04:12:54.937Z,99428.38
2022-09-15T04:15:21.575Z,99438.16
2022-09-15T04:17:48.136Z,99439.84
2022-09-15T04:20:14.780Z,99446.13
2022-09-15T04:22:41.375Z,99445.19
2022-09-15T04:25:09.311Z,99445.19
2022-09-15T04:27:36.406Z,99432.84
2022-09-15T04:30:03.171Z,99434.53
2022-09-15T04:32:29.983Z,99427.53
2022-09-15T04:34:56.520Z,99441.66
2022-09-15T04:37:23.231Z,99449.66
2022-09-15T04:39:49.839Z,99463.78
2022-09-15T04:42:16.419Z,99470.91
2022-09-15T04:44:42.982Z,99474.44
2022-09-15T04:47:09.554Z,99474.53
2022-09-15T04:49:36.077Z,99464.75
2022-09-15T04:52:05.639Z,99461.25
2022-09-15T04:54:35.787Z,99455.09
2022-09-15T04:57:02.387Z,99454.13
2022-09-15T04:59:29.104Z,99447.94
2022-09-15T05:01:56.177Z,99442.75
2022-09-15T05:04:22.813Z,99445.41
2022-09-15T05:06:49.347Z,99447.09
2022-09-15T05:09:15.918Z,99452.44
2022-09-15T05:11:42.531Z,99442.63
2022-09-15T05:14:10.147Z,99455.09
2022-09-15T05:16:36.783Z,99459.56
2022-09-15T05:19:04.574Z,99456.06
2022-09-15T05:21:31.237Z,99466.69
2022-09-15T05:23:57.894Z,99478.28
2022-09-15T05:26:26.341Z,99492.53
2022-09-15T05:28:52.975Z,99505.81
2022-09-15T05:31:21.623Z,99504.94
2022-09-15T05:33:48.698Z,99503.16
2022-09-15T05:36:15.832Z,99509.41
2022-09-15T05:38:42.479Z,99520.03
2022-09-15T05:41:11.354Z,99521.00
2022-09-15T05:43:38.446Z,99518.34
2022-09-15T05:46:05.498Z,99507.81
2022-09-15T05:48:32.161Z,99517.62
2022-09-15T05:50:58.951Z,99519.41
2022-09-15T05:53:25.549Z,99523.00
2022-09-15T05:55:56.628Z,99521.31
2022-09-15T05:58:23.436Z,99515.16
2022-09-15T06:00:50.567Z,99508.88
2022-09-15T06:03:17.190Z,99508.88
2022-09-15T06:05:43.855Z,99500.91
2022-09-15T06:08:10.699Z,99501.84
2022-09-15T06:10:37.537Z,99501.09
2022-09-15T06:13:04.103Z,99509.06
2022-09-15T06:15:31.239Z,99512.63
2022-09-15T06:17:57.886Z,99514.38
2022-09-15T06:20:24.783Z,99504.72
2022-09-15T06:22:51.415Z,99500.25
2022-09-15T06:25:17.953Z,99495.91
2022-09-15T06:27:44.564Z,99511.00
2022-09-15T06:30:11.889Z,99518.97
2022-09-15T06:32:38.451Z,99529.81
2022-09-15T06:35:08.135Z,99539.50
2022-09-15T06:37:34.872Z,99537.78
2022-09-15T06:40:01.979Z,99528.03
2022-09-15T06:42:28.742Z,99525.47
2022-09-15T06:44:55.433Z,99529.81
2022-09-15T06:47:21.994Z,99535.03
2022-09-15T06:49:48.579Z,99532.38
2022-09-15T06:52:15.128Z,99535.03
2022-09-15T06:54:41.730Z,99540.25
2022-09-15T06:57:08.280Z,99540.25
2022-09-15T06:59:34.831Z,99547.25
2022-09-15T07:02:05.156Z,99551.72
2022-09-15T07:04:32.014Z,99555.25
2022-09-15T07:06:58.585Z,99540.97
2022-09-15T07:09:25.154Z,99543.63
2022-09-15T07:11:51.712Z,99529.41
2022-09-15T07:14:18.283Z,99555.03
2022-09-15T07:16:44.856Z,99564.72
2022-09-15T07:19:11.594Z,99560.34
2022-09-15T07:21:38.132Z,99563.88
2022-09-15T07:24:07.372Z,99565.56
2022-09-15T07:26:34.268Z,99575.25
2022-09-15T07:29:01.949Z,99578.78
2022-09-15T07:31:31.155Z,99572.50
2022-09-15T07:33:59.211Z,99568.88
2022-09-15T07:36:25.844Z,99575.84
2022-09-15T07:38:52.446Z,99578.38
2022-09-15T07:41:22.774Z,99571.12
2022-09-15T07:43:50.560Z,99573.72
2022-09-15T07:46:17.319Z,99576.25
2022-09-15T07:48:47.726Z,99571.78
2022-09-15T07:51:15.096Z,99573.59
2022-09-15T07:53:42.159Z,99578.91
2022-09-15T07:56:08.835Z,99576.25
2022-09-15T07:58:35.402Z,99577.09
2022-09-15T08:01:03.784Z,99576.25
2022-09-15T08:03:30.443Z,99579.75
2022-09-15T08:06:00.928Z,99587.75
2022-09-15T08:08:27.607Z,99582.44
2022-09-15T08:10:54.275Z,99576.06
2022-09-15T08:13:20.865Z,99574.13
2022-09-15T08:15:47.935Z,99572.31
2022-09-15T08:18:14.984Z,99586.28
2022-09-15T08:20:41.967Z,99579.13
2022-09-15T08:23:08.618Z,99586.28
2022-09-15T08:25:35.168Z,99587.13
2022-09-15T08:28:01.900Z,99588.81
2022-09-15T08:30:28.488Z,99577.44
2022-09-15T08:32:55.042Z,99580.94
2022-09-15T08:35:21.641Z,99582.66
2022-09-15T08:37:48.192Z,99578.28
2022-09-15T08:40:22.405Z,99567.66
2022-09-15T08:42:50.180Z,99553.38
2022-09-15T08:45:23.275Z,99552.41
2022-09-15T08:47:50.456Z,99554.22
2022-09-15T08:50:41.004Z,99566.56
2022-09-15T08:53:15.444Z,99563.06
2022-09-15T08:55:48.784Z,99555.94
2022-09-15T08:58:17.733Z,99551.47
2022-09-15T09:00:45.686Z,99549.69
2022-09-15T09:03:18.944Z,99548.78
2022-09-15T09:06:08.295Z,99547.09
2022-09-15T09:09:00.230Z,99534.56
2022-09-15T09:11:58.537Z,99530.16
2022-09-15T09:14:48.086Z,99528.28
2022-09-15T09:17:26.703Z,99522.97
2022-09-15T09:20:08.447Z,99522.00
2022-09-15T09:22:36.020Z,99516.66
2022-09-15T09:25:11.605Z,99513.03
2022-09-15T09:27:48.144Z,99515.63
2022-09-15T09:30:27.974Z,99503.25
2022-09-15T09:33:04.961Z,99505.06
2022-09-15T09:35:47.657Z,99509.44
2022-09-15T09:38:18.780Z,99509.34
2022-09-15T09:40:45.365Z,99510.28
2022-09-15T09:43:11.911Z,99519.84
2022-09-15T09:45:38.458Z,99522.53
2022-09-15T09:48:31.290Z,99523.47
2022-09-15T09:50:57.904Z,99516.47
2022-09-15T09:53:33.403Z,99512.00
2022-09-15T09:56:12.499Z,99495.91
2022-09-15T09:58:39.082Z,99498.56
2022-09-15T10:01:16.578Z,99499.41
2022-09-15T10:03:43.940Z,99490.59
2022-09-15T10:06:22.177Z,99486.25
2022-09-15T10:08:58.775Z,99480.91
2022-09-15T10:12:03.770Z,99471.97
2022-09-15T10:14:42.946Z,99473.78
2022-09-15T10:17:17.014Z,99467.63
2022-09-15T10:20:05.396Z,99456.97
2022-09-15T10:22:31.807Z,99449.84
2022-09-15T10:24:59.117Z,99448.88
2022-09-15T10:27:30.639Z,99440.88
2022-09-15T10:29:59.648Z,99426.66
2022-09-15T10:32:31.003Z,99427.50
2022-09-15T10:35:05.298Z,99425.69
2022-09-15T10:37:41.775Z,99420.38
2022-09-15T10:40:40.352Z,99422.78
2022-09-15T10:43:26.611Z,99428.09
2022-09-15T10:46:14.393Z,99429.84
2022-09-15T10:48:56.050Z,99434.28
2022-09-15T10:51:53.757Z,99441.31
2022-09-15T10:54:45.109Z,99436.84
2022-09-15T10:57:28.297Z,99440.47
2022-09-15T11:00:05.626Z,99440.47
2022-09-15T11:02:59.519Z,99435.16
2022-09-15T11:05:44.054Z,99432.50
2022-09-15T11:08:26.588Z,99432.38
2022-09-15T11:11:05.255Z,99431.53
2022-09-15T11:13:41.435Z,99425.22
2022-09-15T11:16:49.454Z,99428.75
2022-09-15T11:19:30.947Z,99421.59
2022-09-15T11:22:07.584Z,99430.44
2022-09-15T11:24:39.780Z,99440.03
2022-09-15T11:27:36.390Z,99439.19
2022-09-15T11:30:22.626Z,99433.72
2022-09-15T11:32:57.345Z,99437.37
2022-09-15T11:35:40.797Z,99435.53
2022-09-15T11:38:30.723Z,99436.28
2022-09-15T11:41:06.242Z,99415.97
2022-09-15T11:43:35.027Z,99410.75
2022-09-15T11:46:02.212Z,99406.28
2022-09-15T11:48:34.012Z,99394.66
2022-09-15T11:51:01.772Z,99382.31
2022-09-15T11:53:42.931Z,99366.38
2022-09-15T11:56:37.369Z,99361.03
2022-09-15T11:59:28.802Z,99346.75
2022-09-15T12:01:55.611Z,99344.87
2022-09-15T12:04:40.902Z,99354.66
2022-09-15T12:07:18.923Z,99364.44
2022-09-15T12:09:45.578Z,99358.16
2022-09-15T12:12:19.754Z,99359.97
2022-09-15T12:14:49.708Z,99359.09
2022-09-15T12:17:23.473Z,99372.41
2022-09-15T12:20:00.296Z,99375.94
2022-09-15T12:22:31.065Z,99373.16
2022-09-15T12:25:30.178Z,99374.00
2022-09-15T12:28:21.739Z,99360.72
2022-09-15T12:30:48.888Z,99350.91
2022-09-15T12:33:45.355Z,99356.22
2022-09-15T12:36:30.335Z,99348.25
2022-09-15T12:38:56.907Z,99354.41
2022-09-15T12:41:23.459Z,99340.97
2022-09-15T12:44:02.556Z,99333.97
2022-09-15T12:46:29.209Z,99336.53
2022-09-15T12:48:59.214Z,99336.53
2022-09-15T12:51:26.372Z,99327.69
2022-09-15T12:54:04.669Z,99309.06
2022-09-15T12:56:32.316Z,99303.72
2022-09-15T12:59:06.773Z,99314.37
2022-09-15T13:01:52.839Z,99328.66
2022-09-15T13:04:41.004Z,99343.66
2022-09-15T13:07:17.141Z,99341.88
2022-09-15T13:10:00.475Z,99367.59
2022-09-15T13:12:32.057Z,99413.59
2022-09-15T13:15:01.320Z,99510.03
2022-09-15T13:17:27.885Z,99408.06
2022-09-15T13:19:54.727Z,99415.28
2022-09-15T13:22:34.874Z,99401.13
2022-09-15T13:25:05.694Z,99382.50
2022-09-15T13:27:42.071Z,99365.69
2022-09-15T13:30:21.288Z,99359.53
2022-09-15T13:33:23.930Z,99361.22
2022-09-15T13:35:56.748Z,99371.00
2022-09-15T13:38:38.160Z,99380.81
2022-09-15T13:41:30.971Z,99397.63
2022-09-15T13:44:12.566Z,99383.47
2022-09-15T13:47:14.612Z,99368.34
2022-09-15T13:49:45.686Z,99372.69
2022-09-15T13:52:33.304Z,99360.37
2022-09-15T13:55:15.453Z,99369.19
2022-09-15T14:00:33.699Z,99377.91
2022-09-15T14:03:05.832Z,99384.09
2022-09-15T14:05:33.031Z,99361.84
2022-09-15T14:08:09.254Z,99349.50
2022-09-15T14:10:55.323Z,99364.50
2022-09-15T14:13:22.131Z,99377.81
2022-09-15T14:16:19.192Z,99371.53
2022-09-15T14:18:46.136Z,99347.56
2022-09-15T14:21:18.149Z,99341.41
2022-09-15T14:23:48.741Z,99348.41
2022-09-15T14:26:16.227Z,99358.22
2022-09-15T14:28:57.772Z,99348.41
2022-09-15T14:31:38.521Z,99343.09
2022-09-15T14:34:24.252Z,99359.91
2022-09-15T14:37:02.531Z,99387.38
2022-09-15T14:39:29.232Z,99391.84
2022-09-15T14:41:55.841Z,99406.00
2022-09-15T14:47:28.229Z,99416.66
2022-09-15T14:50:09.748Z,99390.87
2022-09-15T14:52:39.498Z,99395.34
2022-09-15T14:55:08.132Z,99393.53
2022-09-15T14:57:36.209Z,99399.75
2022-09-15T15:00:07.091Z,99413.03
2022-09-15T15:02:57.263Z,99413.91
2022-09-15T15:05:34.118Z,99439.66
2022-09-15T15:08:01.649Z,99416.56
2022-09-15T15:10:33.530Z,99408.56
2022-09-15T15:13:14.116Z,99388.22
2022-09-15T15:15:40.672Z,99393.44
2022-09-15T15:18:31.662Z,99394.41
2022-09-15T15:20:58.946Z,99400.59
2022-09-15T15:23:25.736Z,99390.78
2022-09-15T15:25:52.866Z,99379.28
2022-09-15T15:28:33.450Z,99356.19
2022-09-15T15:31:16.652Z,99362.47
2022-09-15T15:33:47.785Z,99358.00
2022-09-15T15:36:14.331Z,99350.84
2022-09-15T15:38:47.108Z,99369.50
2022-09-15T15:41:24.704Z,99418.25
2022-09-15T15:44:13.453Z,99411.22
2022-09-15T15:46:47.052Z,99403.25
2022-09-15T15:49:13.891Z,99406.75
2022-09-15T15:51:40.980Z,99397.94
2022-09-15T15:54:07.526Z,99388.97
2022-09-15T15:56:37.888Z,99381.94
2022-09-15T15:59:05.794Z,99379.28
2022-09-15T16:01:32.921Z,99363.31
2022-09-15T16:03:59.485Z,99365.97
2022-09-15T16:06:26.216Z,99370.47
2022-09-15T16:08:52.763Z,99358.94
2022-09-15T16:11:20.843Z,99350.00
2022-09-15T16:13:48.352Z,99342.88
2022-09-15T16:16:25.846Z,99331.47
2022-09-15T16:18:52.729Z,99326.06
2022-09-15T16:21:36.750Z,99321.66
2022-09-15T16:24:07.169Z,99308.37
2022-09-15T16:26:35.701Z,99297.72
2022-09-15T16:29:02.308Z,99308.37
2022-09-15T16:31:28.954Z,99292.41
2022-09-15T16:33:55.853Z,99296.88
2022-09-15T16:36:22.409Z,99310.09
2022-09-15T16:38:49.514Z,99318.16
2022-09-15T16:41:17.727Z,99330.53
2022-09-15T16:43:44.665Z,99319.00
2022-09-15T16:46:11.606Z,99314.56
2022-09-15T16:48:38.679Z,99318.16
2022-09-15T16:51:24.773Z,99323.50
2022-09-15T16:53:55.181Z,99334.97
2022-09-15T16:56:21.767Z,99342.12
2022-09-15T16:58:48.312Z,99345.63
2022-09-15T17:01:18.920Z,99341.28
2022-09-15T17:03:45.594Z,99339.47
2022-09-15T17:06:13.467Z,99346.59
2022-09-15T17:08:40.081Z,99349.25
2022-09-15T17:11:12.199Z,99347.44
2022-09-15T17:13:41.031Z,99357.25
2022-09-15T17:16:07.631Z,99360.75
2022-09-15T17:18:34.252Z,99359.91
2022-09-15T17:21:00.999Z,99365.22
2022-09-15T17:23:33.763Z,99357.25
2022-09-15T17:26:01.901Z,99344.91
2022-09-15T17:28:29.745Z,99361.72
2022-09-15T17:31:00.571Z,99357.25
2022-09-15T17:33:27.539Z,99349.25
2022-09-15T17:35:54.083Z,99337.75
2022-09-15T17:38:21.894Z,99337.75
2022-09-15T17:40:49.686Z,99343.09
2022-09-15T17:43:21.016Z,99331.59
2022-09-15T17:45:48.017Z,99325.44
2022-09-15T17:48:14.563Z,99326.28
2022-09-15T17:50:41.871Z,99340.44
2022-09-15T17:53:16.308Z,99339.59
2022-09-15T17:55:42.959Z,99334.25
2022-09-15T17:58:09.613Z,99339.59
2022-09-15T18:00:37.355Z,99332.44
2022-09-15T18:03:29.391Z,99330.75
2022-09-15T18:05:58.297Z,99331.59
2022-09-15T18:08:25.198Z,99343.09
2022-09-15T18:10:51.905Z,99336.06
2022-09-15T18:13:23.612Z,99338.75
2022-09-15T18:15:50.620Z,99335.22
2022-09-15T18:18:19.784Z,99347.56
2022-09-15T18:20:46.628Z,99349.38
2022-09-15T18:23:14.351Z,99346.72
2022-09-15T18:25:41.012Z,99339.72
2022-09-15T18:28:07.571Z,99354.72
2022-09-15T18:30:37.151Z,99357.38
2022-09-15T18:33:03.841Z,99361.84
2022-09-15T18:35:31.107Z,99360.03
2022-09-15T18:37:58.567Z,99363.66
2022-09-15T18:40:25.668Z,99353.84
2022-09-15T18:42:52.426Z,99353.84
2022-09-15T18:45:19.274Z,99347.69
2022-09-15T18:47:49.497Z,99361.00
2022-09-15T18:50:16.786Z,99364.59
2022-09-15T18:52:43.464Z,99370.81
2022-09-15T18:55:15.956Z,99363.66
2022-09-15T18:57:42.638Z,99376.13
2022-09-15T19:00:12.167Z,99373.47
2022-09-15T19:02:39.116Z,99373.47
2022-09-15T19:05:06.394Z,99378.78
2022-09-15T19:07:33.063Z,99377.06
2022-09-15T19:10:00.661Z,99385.88
2022-09-15T19:12:27.263Z,99393.03
2022-09-15T19:14:53.794Z,99402.75
2022-09-15T19:17:21.117Z,99390.38
2022-09-15T19:19:47.639Z,99383.22
2022-09-15T19:22:14.187Z,99384.09
2022-09-15T19:24:40.724Z,99386.78
2022-09-15T19:27:07.766Z,99385.03
2022-09-15T19:29:35.264Z,99385.03
2022-09-15T19:32:03.763Z,99378.03
2022-09-15T19:34:30.371Z,99390.38
2022-09-15T19:36:56.934Z,99404.63
2022-09-15T19:39:23.459Z,99412.63
2022-09-15T19:41:50.124Z,99411.66
2022-09-15T19:44:16.747Z,99411.66
2022-09-15T19:46:43.386Z,99402.81
2022-09-15T19:49:10.103Z,99401.00
2022-09-15T19:51:36.676Z,99400.16
2022-09-15T19:54:03.665Z,99400.28
2022-09-15T19:56:30.367Z,99415.28
2022-09-15T19:58:57.497Z,99415.28
2022-09-15T20:01:25.721Z,99417.94
2022-09-15T20:03:56.076Z,99409.97
2022-09-15T20:06:23.280Z,99417.94
2022-09-15T20:08:53.591Z,99409.13
2022-09-15T20:11:20.485Z,99414.44
2022-09-15T20:13:47.047Z,99411.78
2022-09-15T20:16:17.724Z,99419.75
2022-09-15T20:18:48.704Z,99427.75
2022-09-15T20:21:26.909Z,99429.56
2022-09-15T20:24:03.148Z,99429.56
2022-09-15T20:26:31.717Z,99433.06
2022-09-15T20:29:02.089Z,99437.53
2022-09-15T20:31:29.203Z,99441.06
2022-09-15T20:33:56.140Z,99434.88
2022-09-15T20:36:24.448Z,99437.53
2022-09-15T20:38:51.705Z,99434.88
2022-09-15T20:41:19.232Z,99435.84
2022-09-15T20:43:45.774Z,99443.84
2022-09-15T20:46:14.586Z,99449.16
2022-09-15T20:48:41.322Z,99458.97
2022-09-15T20:51:21.508Z,99462.47
2022-09-15T20:53:52.238Z,99468.63
2022-09-15T20:56:21.218Z,99479.28
2022-09-15T20:58:47.806Z,99483.75
2022-09-15T21:01:15.905Z,99475.78
2022-09-15T21:03:43.248Z,99480.25
2022-09-15T21:06:11.579Z,99475.78
2022-09-15T21:08:38.156Z,99475.78
2022-09-15T21:11:05.690Z,99476.63
2022-09-15T21:13:33.706Z,99486.41
2022-09-15T21:16:02.263Z,99481.94
2022-09-15T21:18:34.186Z,99491.75
2022-09-15T21:21:02.349Z,99487.34
2022-09-15T21:23:33.339Z,99484.69
2022-09-15T21:26:02.111Z,99476.72
2022-09-15T21:28:29.349Z,99476.72
2022-09-15T21:31:09.981Z,99476.72
2022-09-15T21:33:36.839Z,99475.87
2022-09-15T21:36:07.328Z,99483.84
2022-09-15T21:38:34.607Z,99483.84
2022-09-15T21:41:01.196Z,99475.03
2022-09-15T21:43:31.570Z,99482.03
2022-09-15T21:45:58.464Z,99483.84
2022-09-15T21:48:26.846Z,99490.03
2022-09-15T21:50:53.742Z,99492.69
2022-09-15T21:53:21.038Z,99491.84
2022-09-15T21:55:50.372Z,99498.00
2022-09-15T21:58:19.095Z,99501.62
2022-09-15T22:00:46.617Z,99513.13
2022-09-15T22:03:13.580Z,99522.91
2022-09-15T22:05:45.868Z,99532.59
2022-09-15T22:08:13.297Z,99530.06
2022-09-15T22:10:40.506Z,99537.91
2022-09-15T22:13:07.965Z,99546.88
2022-09-15T22:15:34.639Z,99553.03
2022-09-15T22:18:01.357Z,99552.19
2022-09-15T22:20:28.050Z,99556.66
2022-09-15T22:22:56.047Z,99559.34
2022-09-15T22:25:22.712Z,99554.84
2022-09-15T22:27:51.241Z,99556.66
2022-09-15T22:30:17.795Z,99552.19
2022-09-15T22:32:44.355Z,99552.19
2022-09-15T22:35:11.467Z,99561.16
2022-09-15T22:37:38.024Z,99553.16
2022-09-15T22:40:05.076Z,99563.81
2022-09-15T22:42:31.688Z,99568.28
2022-09-15T22:44:58.228Z,99574.44
2022-09-15T22:47:24.802Z,99575.41
2022-09-15T22:49:51.522Z,99579.78
2022-09-15T22:52:18.173Z,99583.41
2022-09-15T22:54:44.719Z,99583.41
2022-09-15T22:57:11.297Z,99594.03
2022-09-15T22:59:37.866Z,99592.22
2022-09-15T23:02:04.532Z,99601.06
2022-09-15T23:04:31.143Z,99605.53
2022-09-15T23:06:57.710Z,99606.50
2022-09-15T23:09:24.307Z,99613.53
2022-09-15T23:11:50.857Z,99630.47
2022-09-15T23:14:17.685Z,99633.97
2022-09-15T23:16:44.411Z,99628.66
2022-09-15T23:19:14.342Z,99639.28
2022-09-15T23:21:40.971Z,99646.41
2022-09-15T23:24:08.758Z,99651.75
2022-09-15T23:26:35.339Z,99643.75
2022-09-15T23:29:04.905Z,99643.75
2022-09-15T23:31:34.891Z,99652.72
2022-09-15T23:34:01.772Z,99643.75
2022-09-15T23:36:28.308Z,99649.09
2022-09-15T23:38:54.940Z,99648.25
2022-09-15T23:41:21.618Z,99648.25
2022-09-15T23:43:48.208Z,99635.87
2022-09-15T23:46:15.081Z,99637.59
2022-09-15T23:48:41.891Z,99648.25
2022-09-15T23:51:08.828Z,99645.56
2022-09-15T23:53:35.508Z,99653.56
2022-09-15T23:56:02.258Z,99652.72
2022-09-15T23:58:28.837Z,99655.38
